ROTAER AMDT 3/19

Atenção: As informações desta localidade entrarão em vigor a partir da D-ADMT 3/19 (17/01/19)

TARAUACA ( SBTK ) / TARAUACÁ, AC 08 09 17S/070 46 58W
AD PUB 2SE UTC-5 197 (646)

14 - ( 1130x14 ASPH 5700kg/0.5MPa ) - 32

SBAZ (CINDACTA 4)

RMK -

OBSTÁCULO DE AERÓDROMO
  1. OBST (torre metálica) NEG LGTD COORD 08 08 55S/070 46 59W ELEV 944.87FT
  2. OBS torre DIST 750M THR 32 e 550M à direita RCL com ELEV 1034FT e HGT 262FT
INFORMAÇÃO ADICIONAL
  1. OBS concentração de pássaros (urubus) nas proximidades da THR 32 e na perna do vento da RWY 14
TEMP (0)

Suplementos AIP (0)

NOTAM (3)

G1361/18 R G0964/18 03/12/2018 19:54
AFIS CLSD


G1196/18 N 23/10/2018 17:59
MET CMA (AUTOATENDIMENTO) CLSD


G1195/18 N 23/10/2018 17:53
AIS CLSD


Nascer/Por do Sol

10:36

23:09


METAR

Não disponível

TAF

152200Z 1600/1612 00000KT 9999 FEW015 TN19/1607Z TX24/1612Z BECMG 1606/1608 BKN008 RMK PEP=


Cartas (0)